createdAt,value
2019-02-10T00:00:43.996Z,3.80
2019-02-10T00:03:12.450Z,4.17
2019-02-10T00:05:40.926Z,3.87
2019-02-10T00:08:09.456Z,3.80
2019-02-10T00:10:37.913Z,4.60
2019-02-10T00:13:26.488Z,4.37
2019-02-10T00:15:56.177Z,4.83
2019-02-10T00:18:24.956Z,4.00
2019-02-10T00:20:53.403Z,4.30
2019-02-10T00:23:21.982Z,4.17
2019-02-10T00:25:50.709Z,4.40
2019-02-10T00:28:19.558Z,4.73
2019-02-10T00:30:48.258Z,4.60
2019-02-10T00:33:16.829Z,3.87
2019-02-10T00:35:45.392Z,4.43
2019-02-10T00:38:13.859Z,4.70
2019-02-10T00:40:42.335Z,4.93
2019-02-10T00:43:10.813Z,4.63
2019-02-10T00:45:39.386Z,4.73
2019-02-10T00:48:07.845Z,4.87
2019-02-10T00:50:36.359Z,4.80
2019-02-10T00:53:05.104Z,4.43
2019-02-10T00:55:33.523Z,4.27
2019-02-10T00:58:01.961Z,4.87
2019-02-10T01:00:30.485Z,4.93
2019-02-10T01:02:58.949Z,4.43
2019-02-10T01:05:27.420Z,5.23
2019-02-10T01:07:55.939Z,4.17
2019-02-10T01:10:25.747Z,5.30
2019-02-10T01:12:54.348Z,4.33
2019-02-10T01:15:22.812Z,4.60
2019-02-10T01:17:51.579Z,4.37
2019-02-10T01:20:20.235Z,5.13
2019-02-10T01:22:48.711Z,3.97
2019-02-10T01:25:17.228Z,4.60
2019-02-10T01:27:45.708Z,4.00
2019-02-10T01:30:15.392Z,4.53
2019-02-10T01:32:43.913Z,4.53
2019-02-10T01:35:12.754Z,4.97
2019-02-10T01:37:41.287Z,4.00
2019-02-10T01:40:10.805Z,4.75
2019-02-10T01:42:39.300Z,4.90
2019-02-10T01:45:10.541Z,5.03
2019-02-10T01:47:39.068Z,5.00
2019-02-10T01:50:09.962Z,4.50
2019-02-10T01:52:38.653Z,4.60
2019-02-10T01:55:12.155Z,5.07
2019-02-10T01:57:40.801Z,4.40
2019-02-10T02:00:16.309Z,4.70
2019-02-10T02:02:44.803Z,5.28
2019-02-10T02:05:13.249Z,5.10
2019-02-10T02:07:42.112Z,4.50
2019-02-10T02:10:14.885Z,4.83
2019-02-10T02:12:43.363Z,5.30
2019-02-10T02:15:14.286Z,4.43
2019-02-10T02:17:43.050Z,4.30
2019-02-10T02:20:12.903Z,5.30
2019-02-10T02:22:41.438Z,4.77
2019-02-10T02:25:11.711Z,5.57
2019-02-10T02:27:40.298Z,4.67
2019-02-10T02:30:11.669Z,5.03
2019-02-10T02:32:40.198Z,5.57
2019-02-10T02:35:08.924Z,4.77
2019-02-10T02:37:37.368Z,4.70
2019-02-10T02:40:08.129Z,4.37
2019-02-10T02:42:36.725Z,4.50
2019-02-10T02:45:10.347Z,4.80
2019-02-10T02:47:38.855Z,4.27
2019-02-10T02:50:10.060Z,4.33
2019-02-10T02:52:38.664Z,4.93
2019-02-10T02:55:09.120Z,5.53
2019-02-10T02:57:37.707Z,4.57
2019-02-10T03:00:08.905Z,5.10
2019-02-10T03:02:37.333Z,5.00
2019-02-10T03:05:07.929Z,6.27
2019-02-10T03:07:36.611Z,4.93
2019-02-10T03:10:07.014Z,4.57
2019-02-10T03:12:39.421Z,4.70
2019-02-10T03:15:08.928Z,4.17
2019-02-10T03:17:37.470Z,4.57
2019-02-10T03:20:07.451Z,4.40
2019-02-10T03:22:35.905Z,4.30
2019-02-10T03:25:07.673Z,3.93
2019-02-10T03:27:36.092Z,4.67
2019-02-10T03:30:07.119Z,3.83
2019-02-10T03:32:35.552Z,4.10
2019-02-10T03:35:06.092Z,4.43
2019-02-10T03:37:34.503Z,5.37
2019-02-10T03:40:03.121Z,4.47
2019-02-10T03:42:31.667Z,4.33
2019-02-10T03:45:05.417Z,3.67
2019-02-10T03:47:33.993Z,3.83
2019-02-10T03:50:02.404Z,4.08
2019-02-10T03:52:30.838Z,4.08
2019-02-10T03:54:59.321Z,4.17
2019-02-10T03:57:27.725Z,3.90
2019-02-10T03:59:56.517Z,3.50
2019-02-10T04:02:24.984Z,3.70
2019-02-10T04:04:53.448Z,4.40
2019-02-10T04:07:21.892Z,4.60
2019-02-10T04:09:50.417Z,4.30
2019-02-10T04:12:18.842Z,3.73
2019-02-10T04:14:47.375Z,4.20
2019-02-10T04:17:15.796Z,3.70
2019-02-10T04:19:44.297Z,4.33
2019-02-10T04:22:12.720Z,4.07
2019-02-10T04:24:41.117Z,4.40
2019-02-10T04:27:09.569Z,4.00
2019-02-10T04:29:37.970Z,3.97
2019-02-10T04:32:06.400Z,3.67
2019-02-10T04:34:34.814Z,3.97
2019-02-10T04:37:03.242Z,4.58
2019-02-10T04:39:31.915Z,4.23
2019-02-10T04:42:00.351Z,3.87
2019-02-10T04:44:28.772Z,3.87
2019-02-10T04:46:57.182Z,3.80
2019-02-10T04:49:25.680Z,3.77
2019-02-10T04:51:54.113Z,3.72
2019-02-10T04:54:22.554Z,4.33
2019-02-10T04:56:51.000Z,4.13
2019-02-10T04:59:19.469Z,3.97
2019-02-10T05:01:47.917Z,4.23
2019-02-10T05:04:16.430Z,3.63
2019-02-10T05:06:44.872Z,4.40
2019-02-10T05:09:13.352Z,3.97
2019-02-10T05:11:41.824Z,3.27
2019-02-10T05:14:10.265Z,4.30
2019-02-10T05:16:38.694Z,4.33
2019-02-10T05:19:07.083Z,3.77
2019-02-10T05:21:35.492Z,3.97
2019-02-10T05:24:04.011Z,3.57
2019-02-10T05:26:32.496Z,3.67
2019-02-10T05:29:00.885Z,3.70
2019-02-10T05:31:29.333Z,3.83
2019-02-10T05:33:57.849Z,4.93
2019-02-10T05:36:26.251Z,3.70
2019-02-10T05:38:54.657Z,2.87
2019-02-10T05:41:23.085Z,3.10
2019-02-10T05:43:51.484Z,3.87
2019-02-10T05:46:19.908Z,4.47
2019-02-10T05:48:48.347Z,3.93
2019-02-10T05:51:16.773Z,3.60
2019-02-10T05:53:45.197Z,3.40
2019-02-10T05:56:13.682Z,3.90
2019-02-10T05:58:42.120Z,3.33
2019-02-10T06:01:46.718Z,3.27
2019-02-10T06:04:15.174Z,3.47
2019-02-10T06:06:43.682Z,3.53
2019-02-10T06:09:12.123Z,2.97
2019-02-10T06:11:40.545Z,3.60
2019-02-10T06:14:08.992Z,3.03
2019-02-10T06:16:37.406Z,3.23
2019-02-10T06:19:05.819Z,3.33
2019-02-10T06:21:34.268Z,2.87
2019-02-10T06:24:02.675Z,3.03
2019-02-10T06:26:31.108Z,2.97
2019-02-10T06:28:59.592Z,3.67
2019-02-10T06:31:27.988Z,3.13
2019-02-10T06:33:56.424Z,3.33
2019-02-10T06:36:24.858Z,2.70
2019-02-10T06:38:53.329Z,3.57
2019-02-10T06:41:21.796Z,3.30
2019-02-10T06:43:50.221Z,3.40
2019-02-10T06:46:18.669Z,3.47
2019-02-10T06:48:47.065Z,3.60
2019-02-10T06:51:15.513Z,4.17
2019-02-10T06:53:43.940Z,3.73
2019-02-10T06:56:12.453Z,2.97
2019-02-10T06:58:40.881Z,3.23
2019-02-10T07:01:10.988Z,3.00
2019-02-10T07:03:49.336Z,3.67
2019-02-10T07:06:17.752Z,3.43
2019-02-10T07:08:46.183Z,3.37
2019-02-10T07:11:14.596Z,3.10
2019-02-10T07:13:45.955Z,3.43
2019-02-10T07:16:34.906Z,3.07
2019-02-10T07:19:34.983Z,3.40
2019-02-10T07:22:22.557Z,3.40
2019-02-10T07:24:59.606Z,3.27
2019-02-10T07:27:28.285Z,3.20
2019-02-10T07:30:08.788Z,4.00
2019-02-10T07:32:49.233Z,3.93
2019-02-10T07:35:26.267Z,3.47
2019-02-10T07:37:57.779Z,4.10
2019-02-10T07:40:31.977Z,3.57
2019-02-10T07:43:15.097Z,2.97
2019-02-10T07:46:10.510Z,2.77
2019-02-10T07:48:48.027Z,3.50
2019-02-10T07:51:19.533Z,3.63
2019-02-10T07:53:59.891Z,3.23
2019-02-10T07:56:49.184Z,3.17
2019-02-10T07:59:41.406Z,3.53
2019-02-10T08:02:18.451Z,3.50
2019-02-10T08:05:06.142Z,3.30
2019-02-10T08:07:37.616Z,3.53
2019-02-10T08:10:30.180Z,3.40
2019-02-10T08:13:04.418Z,3.67
2019-02-10T08:15:53.457Z,4.17
2019-02-10T08:18:30.746Z,4.00
2019-02-10T08:21:21.481Z,3.30
2019-02-10T08:24:18.505Z,4.23
2019-02-10T08:27:01.576Z,4.27
2019-02-10T08:29:44.273Z,3.83
2019-02-10T08:32:15.992Z,4.43
2019-02-10T08:35:02.400Z,4.30
2019-02-10T08:37:39.212Z,4.27
2019-02-10T08:40:19.358Z,4.20
2019-02-10T08:42:56.495Z,4.43
2019-02-10T08:45:42.616Z,3.73
2019-02-10T08:48:19.877Z,4.60
2019-02-10T08:51:03.022Z,4.33
2019-02-10T08:53:31.435Z,4.67
2019-02-10T08:55:59.840Z,4.30
2019-02-10T08:58:28.301Z,4.17
2019-02-10T09:00:56.701Z,3.83
2019-02-10T09:03:25.133Z,3.87
2019-02-10T09:05:53.540Z,4.37
2019-02-10T09:08:21.989Z,4.20
2019-02-10T09:10:50.444Z,3.60
2019-02-10T09:13:18.844Z,3.93
2019-02-10T09:15:47.277Z,4.80
2019-02-10T09:18:15.689Z,3.87
2019-02-10T09:20:44.132Z,3.90
2019-02-10T09:23:12.612Z,4.47
2019-02-10T09:25:41.045Z,4.63
2019-02-10T09:28:09.514Z,4.80
2019-02-10T09:30:37.961Z,4.73
2019-02-10T09:33:06.404Z,4.20
2019-02-10T09:35:34.809Z,4.17
2019-02-10T09:38:03.215Z,4.40
2019-02-10T09:40:31.632Z,4.50
2019-02-10T09:43:00.041Z,3.90
2019-02-10T09:45:28.476Z,4.27
2019-02-10T09:47:56.904Z,4.13
2019-02-10T09:50:25.307Z,4.97
2019-02-10T09:52:53.772Z,5.87
2019-02-10T09:55:22.186Z,6.13
2019-02-10T09:57:50.614Z,6.90
2019-02-10T10:00:19.093Z,5.10
2019-02-10T10:02:47.538Z,6.23
2019-02-10T10:05:16.017Z,8.27
2019-02-10T10:07:44.457Z,6.13
2019-02-10T10:10:14.088Z,5.90
2019-02-10T10:12:42.513Z,5.42
2019-02-10T10:15:16.256Z,6.43
2019-02-10T10:17:44.691Z,7.17
2019-02-10T10:20:15.728Z,8.63
2019-02-10T10:22:44.161Z,9.63
2019-02-10T10:25:12.625Z,6.10
2019-02-10T10:27:41.047Z,6.60
2019-02-10T10:30:15.309Z,6.63
2019-02-10T10:32:43.785Z,9.83
2019-02-10T10:35:12.282Z,6.53
2019-02-10T10:37:40.767Z,7.13
2019-02-10T10:40:12.527Z,7.70
2019-02-10T10:42:40.937Z,7.10
2019-02-10T10:45:13.890Z,6.20
2019-02-10T10:47:42.297Z,6.33
2019-02-10T10:50:14.092Z,8.00
2019-02-10T10:52:42.516Z,8.80
2019-02-10T10:55:12.065Z,7.43
2019-02-10T10:57:40.518Z,8.87
2019-02-10T11:00:11.964Z,8.03
2019-02-10T11:02:40.370Z,7.80
2019-02-10T11:05:09.041Z,8.77
2019-02-10T11:07:37.469Z,9.00
2019-02-10T11:10:08.924Z,8.83
2019-02-10T11:12:37.372Z,8.73
2019-02-10T11:15:11.521Z,8.50
2019-02-10T11:17:39.945Z,9.00
2019-02-10T11:20:10.408Z,8.07
2019-02-10T11:22:38.931Z,9.80
2019-02-10T11:25:09.132Z,9.23
2019-02-10T11:27:37.609Z,8.13
2019-02-10T11:30:09.088Z,7.67
2019-02-10T11:32:37.548Z,7.73
2019-02-10T11:35:07.333Z,7.50
2019-02-10T11:37:35.760Z,7.87
2019-02-10T11:40:06.126Z,8.13
2019-02-10T11:42:34.617Z,8.80
2019-02-10T11:45:03.062Z,9.13
2019-02-10T11:47:31.476Z,9.93
2019-02-10T11:50:00.012Z,10.07
2019-02-10T11:52:28.415Z,11.03
2019-02-10T11:54:56.887Z,9.20
2019-02-10T11:57:25.298Z,9.87
2019-02-10T11:59:53.957Z,9.30
2019-02-10T12:02:22.400Z,8.20
2019-02-10T12:04:50.815Z,9.70
2019-02-10T12:07:19.225Z,9.10
2019-02-10T12:09:51.790Z,10.57
2019-02-10T12:12:17.772Z,9.30
2019-02-10T12:14:46.181Z,8.60
2019-02-10T12:17:14.600Z,10.70
2019-02-10T12:19:43.047Z,9.43
2019-02-10T12:22:11.460Z,10.10
2019-02-10T12:24:40.095Z,8.83
2019-02-10T12:27:08.581Z,10.50
2019-02-10T12:29:37.098Z,7.80
2019-02-10T12:32:05.505Z,10.03
2019-02-10T12:34:33.960Z,10.23
2019-02-10T12:37:02.362Z,10.23
2019-02-10T12:39:30.808Z,7.87
2019-02-10T12:41:59.309Z,9.50
2019-02-10T12:44:27.793Z,9.63
2019-02-10T12:46:56.220Z,10.10
2019-02-10T12:49:24.643Z,9.23
2019-02-10T12:51:53.077Z,10.33
2019-02-10T12:54:21.502Z,10.03
2019-02-10T12:56:49.933Z,10.47
2019-02-10T12:59:18.337Z,9.97
2019-02-10T13:01:46.760Z,10.57
2019-02-10T13:04:15.202Z,9.77
2019-02-10T13:06:43.618Z,11.00
2019-02-10T13:09:12.622Z,9.80
2019-02-10T13:11:41.105Z,10.83
2019-02-10T13:14:09.611Z,10.70
2019-02-10T13:16:38.055Z,12.90
2019-02-10T13:19:06.520Z,11.70
2019-02-10T13:21:34.933Z,14.40
2019-02-10T13:24:05.082Z,11.97
2019-02-10T13:26:33.637Z,12.13
2019-02-10T13:29:02.124Z,10.70
2019-02-10T13:31:30.546Z,12.47
2019-02-10T13:33:59.058Z,13.83
2019-02-10T13:36:27.528Z,13.77
2019-02-10T13:38:55.937Z,14.37
2019-02-10T13:41:25.932Z,12.57
2019-02-10T13:43:54.356Z,14.30
2019-02-10T13:46:22.778Z,14.57
2019-02-10T13:48:51.192Z,11.00
2019-02-10T13:51:19.674Z,14.18
2019-02-10T13:53:48.174Z,11.47
2019-02-10T13:56:16.853Z,14.37
2019-02-10T13:58:45.297Z,13.43
2019-02-10T14:01:13.711Z,14.63
2019-02-10T14:03:42.136Z,15.40
2019-02-10T14:06:10.552Z,14.60
2019-02-10T14:08:38.990Z,17.50
2019-02-10T14:11:07.473Z,17.63
2019-02-10T14:13:35.880Z,17.37
2019-02-10T14:16:04.304Z,20.43
2019-02-10T14:18:32.740Z,21.40
2019-02-10T14:21:02.512Z,23.83
2019-02-10T14:23:31.065Z,23.10
2019-02-10T14:25:59.496Z,19.30
2019-02-10T14:28:27.925Z,22.43
2019-02-10T14:30:57.218Z,21.67
2019-02-10T14:33:25.644Z,22.90
2019-02-10T14:35:54.076Z,22.10
2019-02-10T14:38:22.484Z,21.03
2019-02-10T14:40:50.888Z,17.63
2019-02-10T14:43:19.343Z,15.20
2019-02-10T14:45:47.745Z,15.60
2019-02-10T14:48:16.177Z,18.60
2019-02-10T14:50:44.585Z,14.47
2019-02-10T14:53:12.984Z,13.77
2019-02-10T14:55:41.409Z,15.20
2019-02-10T14:58:09.828Z,15.27
2019-02-10T15:00:38.246Z,13.70
2019-02-10T15:03:06.688Z,13.70
2019-02-10T15:05:35.110Z,16.33
2019-02-10T15:08:03.508Z,14.27
2019-02-10T15:10:31.951Z,17.00
2019-02-10T15:13:00.376Z,15.17
2019-02-10T15:15:28.816Z,13.50
2019-02-10T15:17:57.261Z,15.87
2019-02-10T15:20:25.698Z,14.23
2019-02-10T15:22:54.102Z,12.13
2019-02-10T15:25:22.799Z,12.70
2019-02-10T15:27:51.263Z,12.33
2019-02-10T15:30:19.802Z,13.37
2019-02-10T15:32:50.108Z,13.67
2019-02-10T15:35:18.544Z,13.23
2019-02-10T15:37:46.962Z,12.20
2019-02-10T15:40:15.390Z,13.40
2019-02-10T15:42:43.801Z,14.00
2019-02-10T15:45:13.376Z,15.43
2019-02-10T15:47:41.826Z,11.90
2019-02-10T15:50:12.474Z,12.17
2019-02-10T15:52:40.885Z,11.40
2019-02-10T15:55:11.148Z,13.30
2019-02-10T15:57:39.612Z,12.80
2019-02-10T16:00:19.706Z,12.40
2019-02-10T16:02:48.183Z,12.80
2019-02-10T16:05:16.622Z,13.30
2019-02-10T16:07:45.024Z,12.63
2019-02-10T16:10:13.425Z,14.90
2019-02-10T16:12:41.862Z,12.80
2019-02-10T16:15:11.848Z,11.37
2019-02-10T16:17:40.249Z,14.50
2019-02-10T16:20:11.235Z,14.47
2019-02-10T16:22:39.644Z,14.00
2019-02-10T16:25:08.692Z,14.33
2019-02-10T16:27:37.120Z,12.60
2019-02-10T16:30:11.048Z,15.90
2019-02-10T16:32:39.456Z,15.83
2019-02-10T16:35:08.405Z,15.13
2019-02-10T16:37:36.843Z,14.53
2019-02-10T16:40:13.942Z,15.13
2019-02-10T16:42:42.373Z,17.80
2019-02-10T16:45:12.116Z,16.40
2019-02-10T16:47:40.552Z,16.97
2019-02-10T16:50:11.324Z,16.33
2019-02-10T16:52:39.973Z,19.20
2019-02-10T16:55:16.262Z,20.60
2019-02-10T16:57:44.666Z,18.67
2019-02-10T17:00:17.094Z,16.17
2019-02-10T17:02:45.492Z,16.67
2019-02-10T17:05:13.993Z,13.20
2019-02-10T17:07:42.662Z,13.80
2019-02-10T17:10:18.393Z,15.83
2019-02-10T17:12:46.832Z,14.77
2019-02-10T17:15:15.240Z,17.70
2019-02-10T17:17:43.643Z,17.00
2019-02-10T17:20:13.035Z,15.00
2019-02-10T17:22:41.621Z,16.57
2019-02-10T17:25:15.559Z,16.23
2019-02-10T17:27:43.991Z,11.70
2019-02-10T17:30:14.140Z,12.97
2019-02-10T17:32:42.584Z,13.60
2019-02-10T17:35:12.625Z,15.93
2019-02-10T17:37:41.120Z,15.93
2019-02-10T17:40:18.270Z,15.30
2019-02-10T17:42:46.705Z,15.43
2019-02-10T17:45:15.175Z,16.20
2019-02-10T17:47:43.591Z,16.87
2019-02-10T17:50:12.540Z,15.83
2019-02-10T17:52:40.993Z,13.93
2019-02-10T17:55:10.038Z,12.83
2019-02-10T17:57:38.442Z,12.17
2019-02-10T18:00:15.431Z,11.63
2019-02-10T18:02:43.845Z,11.97
2019-02-10T18:05:12.391Z,10.77
2019-02-10T18:07:40.852Z,11.20
2019-02-10T18:10:11.951Z,9.87
2019-02-10T18:12:40.427Z,9.43
2019-02-10T18:15:12.193Z,10.60
2019-02-10T18:17:42.228Z,10.40
2019-02-10T18:20:21.995Z,9.00
2019-02-10T18:22:52.028Z,8.70
2019-02-10T18:25:24.821Z,7.60
2019-02-10T18:28:10.884Z,8.40
2019-02-10T18:30:40.925Z,7.63
2019-02-10T18:33:14.004Z,8.50
2019-02-10T18:35:59.141Z,9.77
2019-02-10T18:38:31.696Z,8.07
2019-02-10T18:41:01.775Z,11.20
2019-02-10T18:43:31.833Z,9.50
2019-02-10T18:46:01.897Z,8.50
2019-02-10T18:48:37.796Z,9.70
2019-02-10T18:51:13.877Z,7.67
2019-02-10T18:53:43.940Z,7.57
2019-02-10T18:56:14.028Z,8.53
2019-02-10T18:58:44.069Z,10.30
2019-02-10T19:01:22.723Z,8.27
2019-02-10T19:03:55.464Z,10.93
2019-02-10T19:06:37.324Z,8.70
2019-02-10T19:09:26.021Z,9.03
2019-02-10T19:12:01.613Z,9.97
2019-02-10T19:14:44.465Z,10.27
2019-02-10T19:17:28.078Z,10.80
2019-02-10T19:20:00.561Z,10.43
2019-02-10T19:22:33.046Z,11.27
2019-02-10T19:25:03.345Z,10.23
2019-02-10T19:27:33.387Z,9.13
2019-02-10T19:30:15.001Z,8.80
2019-02-10T19:32:45.068Z,8.67
2019-02-10T19:35:15.115Z,8.80
2019-02-10T19:38:00.018Z,10.77
2019-02-10T19:40:30.133Z,10.17
2019-02-10T19:43:09.340Z,10.77
2019-02-10T19:45:41.837Z,11.43
2019-02-10T19:48:17.516Z,11.17
2019-02-10T19:50:50.329Z,11.87
2019-02-10T19:53:23.360Z,11.27
2019-02-10T19:56:08.501Z,10.27
2019-02-10T19:58:38.565Z,10.97
2019-02-10T20:01:11.325Z,9.73
2019-02-10T20:03:56.432Z,9.20
2019-02-10T20:06:35.388Z,6.87
2019-02-10T20:09:06.260Z,6.50
2019-02-10T20:11:38.989Z,5.10
2019-02-10T20:14:09.026Z,5.93
2019-02-10T20:16:47.828Z,4.10
2019-02-10T20:19:35.932Z,3.40
2019-02-10T20:22:21.884Z,3.23
2019-02-10T20:25:07.017Z,3.10
2019-02-10T20:27:42.761Z,3.37
2019-02-10T20:30:28.581Z,3.47
2019-02-10T20:32:58.651Z,3.17
2019-02-10T20:35:28.797Z,3.17
2019-02-10T20:38:04.641Z,3.70
2019-02-10T20:40:34.706Z,3.10
2019-02-10T20:43:07.476Z,2.40
2019-02-10T20:45:49.597Z,2.70
2019-02-10T20:48:19.672Z,2.23
2019-02-10T20:50:49.724Z,2.60
2019-02-10T20:53:31.350Z,2.20
2019-02-10T20:56:01.673Z,2.10
2019-02-10T20:58:37.890Z,2.00
2019-02-10T21:01:07.972Z,2.00
2019-02-10T21:03:40.751Z,2.50
2019-02-10T21:06:10.832Z,2.23
2019-02-10T21:08:40.875Z,2.60
2019-02-10T21:11:10.921Z,2.70
2019-02-10T21:13:43.899Z,2.47
2019-02-10T21:16:19.725Z,2.50
2019-02-10T21:18:49.800Z,2.20
2019-02-10T21:21:25.528Z,2.23
2019-02-10T21:24:07.659Z,2.00
2019-02-10T21:26:37.725Z,2.33
2019-02-10T21:29:07.816Z,2.20
2019-02-10T21:31:53.853Z,2.47
2019-02-10T21:34:40.165Z,2.60
2019-02-10T21:37:15.709Z,3.10
2019-02-10T21:40:03.593Z,3.70
2019-02-10T21:42:42.576Z,4.23
2019-02-10T21:45:12.633Z,4.70
2019-02-10T21:47:42.704Z,4.80
2019-02-10T21:50:11.113Z,5.17
2019-02-10T21:52:39.544Z,5.57
2019-02-10T21:55:09.101Z,5.73
2019-02-10T21:57:37.529Z,5.83
2019-02-10T22:00:12.025Z,6.30
2019-02-10T22:02:40.494Z,7.47
2019-02-10T22:05:08.993Z,8.90
2019-02-10T22:07:37.400Z,8.77
2019-02-10T22:10:09.122Z,9.30
2019-02-10T22:12:37.535Z,9.17
2019-02-10T22:15:08.621Z,11.12
2019-02-10T22:17:37.044Z,11.57
2019-02-10T22:20:08.760Z,11.57
2019-02-10T22:22:37.192Z,11.53
2019-02-10T22:25:08.570Z,11.57
2019-02-10T22:27:36.989Z,11.27
2019-02-10T22:30:08.474Z,13.53
2019-02-10T22:32:36.913Z,12.63
2019-02-10T22:35:05.590Z,12.33
2019-02-10T22:37:34.009Z,13.33
2019-02-10T22:40:02.489Z,14.47
2019-02-10T22:42:31.053Z,13.03
2019-02-10T22:44:59.465Z,14.03
2019-02-10T22:47:28.583Z,15.10
2019-02-10T22:49:56.997Z,16.97
2019-02-10T22:52:25.449Z,16.10
2019-02-10T22:54:54.074Z,16.93
2019-02-10T22:57:22.900Z,19.13
2019-02-10T22:59:51.333Z,19.67
2019-02-10T23:02:19.761Z,20.53
2019-02-10T23:04:48.174Z,21.27
2019-02-10T23:07:16.630Z,23.70
2019-02-10T23:09:45.033Z,23.03
2019-02-10T23:12:13.532Z,23.23
2019-02-10T23:14:42.062Z,24.57
2019-02-10T23:17:10.496Z,21.53
2019-02-10T23:19:38.900Z,20.87
2019-02-10T23:22:07.332Z,20.90
2019-02-10T23:24:35.748Z,20.30
2019-02-10T23:27:04.189Z,18.20
2019-02-10T23:29:32.616Z,19.27
2019-02-10T23:32:01.129Z,18.43
2019-02-10T23:34:29.567Z,17.40
2019-02-10T23:36:57.973Z,17.70
2019-02-10T23:39:26.422Z,16.80
2019-02-10T23:41:54.852Z,13.60
2019-02-10T23:44:23.261Z,12.47
2019-02-10T23:46:51.672Z,12.73
2019-02-10T23:49:20.099Z,10.17
2019-02-10T23:51:48.557Z,10.33
2019-02-10T23:54:17.048Z,10.67
2019-02-10T23:56:47.291Z,8.57
2019-02-10T23:59:15.656Z,8.93
